createdAt,value
2018-04-23T00:00:08.554Z,960.37
2018-04-23T00:01:08.545Z,960.36
2018-04-23T00:02:08.520Z,960.36
2018-04-23T00:03:08.501Z,960.39
2018-04-23T00:04:08.482Z,960.36
2018-04-23T00:05:08.472Z,960.35
2018-04-23T00:06:08.447Z,960.35
2018-04-23T00:07:08.430Z,960.34
2018-04-23T00:08:08.411Z,960.35
2018-04-23T00:09:08.394Z,960.38
2018-04-23T00:10:08.377Z,960.39
2018-04-23T00:11:08.359Z,960.38
2018-04-23T00:12:08.340Z,960.37
2018-04-23T00:13:08.321Z,960.37
2018-04-23T00:14:08.306Z,960.37
2018-04-23T00:15:08.288Z,960.35
2018-04-23T00:16:08.268Z,960.34
2018-04-23T00:17:08.253Z,960.31
2018-04-23T00:18:08.232Z,960.34
2018-04-23T00:19:08.219Z,960.32
2018-04-23T00:20:08.200Z,960.31
2018-04-23T00:21:08.179Z,960.31
2018-04-23T00:22:08.161Z,960.33
2018-04-23T00:23:08.160Z,960.32
2018-04-23T00:24:08.126Z,960.32
2018-04-23T00:25:08.109Z,960.30
2018-04-23T00:26:08.089Z,960.27
2018-04-23T00:27:08.070Z,960.30
2018-04-23T00:28:08.053Z,960.31
2018-04-23T00:29:08.035Z,960.30
2018-04-23T00:30:08.017Z,960.29
2018-04-23T00:31:08.002Z,960.29
2018-04-23T00:32:07.981Z,960.30
2018-04-23T00:33:08.712Z,960.32
2018-04-23T00:34:07.945Z,960.30
2018-04-23T00:35:07.926Z,960.28
2018-04-23T00:36:07.909Z,960.30
2018-04-23T00:37:07.890Z,960.31
2018-04-23T00:38:07.872Z,960.32
2018-04-23T00:39:07.855Z,960.33
2018-04-23T00:40:07.844Z,960.30
2018-04-23T00:41:07.818Z,960.30
2018-04-23T00:42:07.800Z,960.33
2018-04-23T00:43:07.782Z,960.33
2018-04-23T00:44:07.763Z,960.33
2018-04-23T00:45:07.745Z,960.34
2018-04-23T00:46:07.727Z,960.34
2018-04-23T00:47:07.708Z,960.33
2018-04-23T00:48:07.790Z,960.32
2018-04-23T00:49:07.671Z,960.34
2018-04-23T00:50:07.654Z,960.34
2018-04-23T00:51:07.636Z,960.33
2018-04-23T00:52:07.617Z,960.34
2018-04-23T00:53:07.601Z,960.35
2018-04-23T00:54:07.580Z,960.39
2018-04-23T00:55:07.563Z,960.43
2018-04-23T00:56:07.547Z,960.38
2018-04-23T00:57:07.525Z,960.43
2018-04-23T00:58:07.507Z,960.40
2018-04-23T00:59:07.495Z,960.41
2018-04-23T01:00:07.471Z,960.41
2018-04-23T01:01:07.453Z,960.42
2018-04-23T01:02:07.439Z,960.43
2018-04-23T01:03:07.417Z,960.45
2018-04-23T01:04:07.399Z,960.46
2018-04-23T01:05:07.380Z,960.41
2018-04-23T01:06:07.361Z,960.45
2018-04-23T01:07:07.343Z,960.43
2018-04-23T01:08:07.324Z,960.46
2018-04-23T01:09:07.306Z,960.44
2018-04-23T01:10:07.289Z,960.46
2018-04-23T01:11:07.270Z,960.44
2018-04-23T01:12:07.252Z,960.45
2018-04-23T01:13:07.233Z,960.45
2018-04-23T01:14:07.216Z,960.49
2018-04-23T01:15:07.200Z,960.42
2018-04-23T01:16:07.178Z,960.45
2018-04-23T01:17:07.162Z,960.48
2018-04-23T01:18:07.143Z,960.48
2018-04-23T01:19:07.124Z,960.45
2018-04-23T01:20:07.105Z,960.47
2018-04-23T01:21:07.090Z,960.46
2018-04-23T01:22:07.067Z,960.43
2018-04-23T01:23:07.050Z,960.48
2018-04-23T01:24:07.030Z,960.51
2018-04-23T01:25:07.012Z,960.47
2018-04-23T01:26:08.496Z,960.50
2018-04-23T01:27:06.977Z,960.50
2018-04-23T01:28:06.957Z,960.49
2018-04-23T01:29:06.940Z,960.48
2018-04-23T01:30:06.920Z,960.50
2018-04-23T01:31:06.902Z,960.48
2018-04-23T01:32:07.635Z,960.44
2018-04-23T01:33:06.865Z,960.44
2018-04-23T01:34:06.850Z,960.42
2018-04-23T01:35:06.829Z,960.46
2018-04-23T01:36:06.810Z,960.48
2018-04-23T01:37:06.791Z,960.47
2018-04-23T01:38:06.773Z,960.50
2018-04-23T01:39:06.755Z,960.54
2018-04-23T01:40:06.736Z,960.49
2018-04-23T01:41:06.718Z,960.52
2018-04-23T01:42:06.698Z,960.54
2018-04-23T01:43:06.680Z,960.51
2018-04-23T01:44:06.662Z,960.53
2018-04-23T01:45:06.644Z,960.52
2018-04-23T01:46:06.625Z,960.52
2018-04-23T01:47:06.606Z,960.51
2018-04-23T01:48:06.591Z,960.54
2018-04-23T01:49:06.570Z,960.49
2018-04-23T01:50:06.553Z,960.54
2018-04-23T01:51:06.533Z,960.53
2018-04-23T01:52:06.513Z,960.53
2018-04-23T01:53:07.245Z,960.52
2018-04-23T01:54:06.477Z,960.54
2018-04-23T01:55:06.458Z,960.53
2018-04-23T01:56:06.438Z,960.55
2018-04-23T01:57:06.419Z,960.53
2018-04-23T01:58:06.401Z,960.53
2018-04-23T01:59:06.384Z,960.51
2018-04-23T02:00:06.365Z,960.54
2018-04-23T02:01:06.346Z,960.56
2018-04-23T02:02:06.328Z,960.53
2018-04-23T02:03:06.311Z,960.57
2018-04-23T02:04:06.288Z,960.58
2018-04-23T02:05:06.272Z,960.57
2018-04-23T02:06:06.253Z,960.58
2018-04-23T02:07:06.233Z,960.59
2018-04-23T02:08:06.214Z,960.60
2018-04-23T02:09:06.197Z,960.57
2018-04-23T02:10:06.177Z,960.62
2018-04-23T02:11:06.160Z,960.64
2018-04-23T02:12:06.142Z,960.63
2018-04-23T02:13:06.121Z,960.60
2018-04-23T02:14:06.103Z,960.60
2018-04-23T02:15:06.084Z,960.59
2018-04-23T02:16:06.086Z,960.65
2018-04-23T02:17:06.046Z,960.63
2018-04-23T02:18:06.028Z,960.62
2018-04-23T02:19:06.760Z,960.60
2018-04-23T02:20:05.990Z,960.65
2018-04-23T02:21:05.973Z,960.63
2018-04-23T02:22:05.953Z,960.59
2018-04-23T02:23:05.935Z,960.64
2018-04-23T02:24:05.922Z,960.62
2018-04-23T02:25:05.899Z,960.61
2018-04-23T02:26:05.879Z,960.60
2018-04-23T02:27:05.861Z,960.57
2018-04-23T02:28:05.842Z,960.58
2018-04-23T02:29:05.824Z,960.58
2018-04-23T02:30:05.807Z,960.55
2018-04-23T02:31:05.786Z,960.55
2018-04-23T02:32:05.767Z,960.52
2018-04-23T02:33:05.749Z,960.56
2018-04-23T02:34:05.730Z,960.56
2018-04-23T02:35:05.711Z,960.53
2018-04-23T02:36:05.692Z,960.53
2018-04-23T02:37:05.674Z,960.51
2018-04-23T02:38:05.659Z,960.55
2018-04-23T02:39:05.641Z,960.55
2018-04-23T02:40:05.618Z,960.54
2018-04-23T02:41:05.599Z,960.56
2018-04-23T02:42:05.579Z,960.50
2018-04-23T02:43:05.564Z,960.48
2018-04-23T02:44:05.543Z,960.53
2018-04-23T02:45:06.277Z,960.50
2018-04-23T02:46:05.506Z,960.49
2018-04-23T02:47:05.487Z,960.48
2018-04-23T02:48:05.472Z,960.47
2018-04-23T02:49:05.454Z,960.48
2018-04-23T02:50:05.432Z,960.43
2018-04-23T02:51:05.413Z,960.47
2018-04-23T02:52:05.392Z,960.49
2018-04-23T02:53:05.375Z,960.48
2018-04-23T02:54:05.356Z,960.51
2018-04-23T02:55:05.347Z,960.51
2018-04-23T02:56:06.069Z,960.53
2018-04-23T02:57:05.316Z,960.53
2018-04-23T02:58:05.284Z,960.55
2018-04-23T02:59:05.262Z,960.53
2018-04-23T03:00:05.243Z,960.54
2018-04-23T03:01:05.226Z,960.52
2018-04-23T03:02:05.209Z,960.53
2018-04-23T03:03:05.188Z,960.52
2018-04-23T03:04:05.169Z,960.57
2018-04-23T03:05:05.153Z,960.54
2018-04-23T03:06:05.135Z,960.56
2018-04-23T03:07:05.115Z,960.52
2018-04-23T03:08:05.094Z,960.53
2018-04-23T03:09:05.077Z,960.55
2018-04-23T03:10:05.061Z,960.51
2018-04-23T03:11:05.039Z,960.51
2018-04-23T03:12:05.021Z,960.51
2018-04-23T03:13:05.003Z,960.55
2018-04-23T03:14:04.983Z,960.49
2018-04-23T03:15:04.966Z,960.51
2018-04-23T03:16:04.946Z,960.51
2018-04-23T03:17:04.928Z,960.54
2018-04-23T03:18:04.910Z,960.51
2018-04-23T03:19:04.890Z,960.49
2018-04-23T03:20:04.872Z,960.54
2018-04-23T03:21:04.852Z,960.53
2018-04-23T03:22:05.585Z,960.53
2018-04-23T03:23:04.815Z,960.52
2018-04-23T03:24:04.796Z,960.52
2018-04-23T03:25:04.779Z,960.49
2018-04-23T03:26:04.759Z,960.51
2018-04-23T03:27:04.742Z,960.50
2018-04-23T03:28:04.722Z,960.47
2018-04-23T03:29:04.705Z,960.47
2018-04-23T03:30:04.687Z,960.47
2018-04-23T03:31:04.669Z,960.49
2018-04-23T03:32:04.649Z,960.51
2018-04-23T03:33:04.629Z,960.52
2018-04-23T03:34:04.611Z,960.50
2018-04-23T03:35:04.592Z,960.50
2018-04-23T03:36:04.574Z,960.55
2018-04-23T03:37:04.581Z,960.55
2018-04-23T03:38:05.288Z,960.53
2018-04-23T03:39:04.517Z,960.54
2018-04-23T03:40:04.498Z,960.52
2018-04-23T03:41:04.481Z,960.54
2018-04-23T03:42:04.461Z,960.51
2018-04-23T03:43:04.444Z,960.55
2018-04-23T03:44:04.423Z,960.56
2018-04-23T03:45:04.405Z,960.53
2018-04-23T03:46:04.387Z,960.55
2018-04-23T03:47:04.368Z,960.53
2018-04-23T03:48:04.348Z,960.54
2018-04-23T03:49:04.331Z,960.52
2018-04-23T03:50:04.313Z,960.56
2018-04-23T03:51:04.294Z,960.53
2018-04-23T03:52:04.275Z,960.55
2018-04-23T03:53:04.256Z,960.54
2018-04-23T03:54:04.238Z,960.53
2018-04-23T03:55:04.218Z,960.56
2018-04-23T03:56:04.198Z,960.52
2018-04-23T03:57:04.180Z,960.54
2018-04-23T03:58:04.164Z,960.55
2018-04-23T03:59:04.142Z,960.55
2018-04-23T04:00:04.123Z,960.54
2018-04-23T04:01:04.104Z,960.53
2018-04-23T04:02:04.087Z,960.54
2018-04-23T04:03:04.068Z,960.57
2018-04-23T04:04:04.049Z,960.53
2018-04-23T04:05:04.030Z,960.58
2018-04-23T04:06:04.010Z,960.57
2018-04-23T04:07:03.992Z,960.59
2018-04-23T04:08:03.973Z,960.58
2018-04-23T04:09:03.954Z,960.61
2018-04-23T04:10:03.935Z,960.63
2018-04-23T04:11:03.917Z,960.64
2018-04-23T04:12:03.898Z,960.61
2018-04-23T04:13:03.878Z,960.62
2018-04-23T04:14:03.861Z,960.66
2018-04-23T04:15:03.842Z,960.64
2018-04-23T04:16:03.821Z,960.66
2018-04-23T04:17:03.803Z,960.68
2018-04-23T04:18:03.784Z,960.63
2018-04-23T04:19:03.767Z,960.64
2018-04-23T04:20:03.746Z,960.67
2018-04-23T04:21:05.229Z,960.64
2018-04-23T04:22:03.711Z,960.64
2018-04-23T04:23:03.694Z,960.71
2018-04-23T04:24:03.671Z,960.65
2018-04-23T04:25:03.659Z,960.66
2018-04-23T04:26:03.641Z,960.64
2018-04-23T04:27:04.364Z,960.64
2018-04-23T04:28:03.597Z,960.63
2018-04-23T04:29:03.577Z,960.67
2018-04-23T04:30:03.557Z,960.69
2018-04-23T04:31:03.539Z,960.70
2018-04-23T04:32:03.519Z,960.69
2018-04-23T04:33:03.501Z,960.68
2018-04-23T04:34:03.481Z,960.68
2018-04-23T04:35:03.464Z,960.69
2018-04-23T04:36:03.442Z,960.72
2018-04-23T04:37:03.468Z,960.68
2018-04-23T04:38:03.411Z,960.71
2018-04-23T04:39:03.388Z,960.69
2018-04-23T04:40:03.370Z,960.71
2018-04-23T04:41:03.348Z,960.71
2018-04-23T04:42:03.334Z,960.72
2018-04-23T04:43:03.314Z,960.74
2018-04-23T04:44:03.294Z,960.74
2018-04-23T04:45:03.273Z,960.72
2018-04-23T04:46:03.256Z,960.74
2018-04-23T04:47:03.236Z,960.76
2018-04-23T04:48:03.221Z,960.74
2018-04-23T04:49:03.198Z,960.72
2018-04-23T04:50:03.179Z,960.72
2018-04-23T04:51:03.160Z,960.74
2018-04-23T04:52:03.140Z,960.69
2018-04-23T04:53:03.128Z,960.68
2018-04-23T04:54:03.104Z,960.66
2018-04-23T04:55:03.088Z,960.67
2018-04-23T04:56:03.064Z,960.68
2018-04-23T04:57:03.046Z,960.73
2018-04-23T04:58:03.028Z,960.69
2018-04-23T04:59:03.035Z,960.66
2018-04-23T05:00:02.989Z,960.70
2018-04-23T05:01:02.971Z,960.73
2018-04-23T05:02:02.951Z,960.72
2018-04-23T05:03:02.934Z,960.71
2018-04-23T05:04:02.913Z,960.71
2018-04-23T05:05:02.895Z,960.72
2018-04-23T05:06:02.875Z,960.73
2018-04-23T05:07:02.859Z,960.74
2018-04-23T05:08:02.841Z,960.70
2018-04-23T05:09:02.820Z,960.72
2018-04-23T05:10:04.302Z,960.67
2018-04-23T05:11:02.782Z,960.65
2018-04-23T05:12:02.763Z,960.64
2018-04-23T05:13:02.743Z,960.65
2018-04-23T05:14:02.725Z,960.63
2018-04-23T05:15:02.705Z,960.68
2018-04-23T05:16:02.686Z,960.64
2018-04-23T05:17:02.674Z,960.66
2018-04-23T05:18:02.656Z,960.66
2018-04-23T05:19:02.631Z,960.65
2018-04-23T05:20:02.615Z,960.69
2018-04-23T05:21:02.592Z,960.65
2018-04-23T05:22:02.574Z,960.66
2018-04-23T05:23:02.554Z,960.63
2018-04-23T05:24:02.538Z,960.69
2018-04-23T05:25:02.517Z,960.66
2018-04-23T05:26:02.498Z,960.70
2018-04-23T05:27:02.481Z,960.70
2018-04-23T05:28:02.460Z,960.69
2018-04-23T05:29:02.442Z,960.69
2018-04-23T05:30:02.478Z,960.70
2018-04-23T05:31:02.404Z,960.67
2018-04-23T05:32:02.386Z,960.69
2018-04-23T05:33:02.367Z,960.67
2018-04-23T05:34:02.347Z,960.63
2018-04-23T05:35:02.329Z,960.71
2018-04-23T05:36:02.310Z,960.69
2018-04-23T05:37:02.292Z,960.70
2018-04-23T05:38:02.274Z,960.69
2018-04-23T05:39:02.256Z,960.69
2018-04-23T05:40:02.235Z,960.73
2018-04-23T05:41:02.217Z,960.77
2018-04-23T05:42:02.202Z,960.73
2018-04-23T05:43:02.181Z,960.72
2018-04-23T05:44:02.178Z,960.72
2018-04-23T05:45:02.141Z,960.71
2018-04-23T05:46:02.129Z,960.70
2018-04-23T05:47:02.105Z,960.69
2018-04-23T05:48:02.086Z,960.73
2018-04-23T05:49:02.066Z,960.67
2018-04-23T05:50:02.048Z,960.69
2018-04-23T05:51:02.037Z,960.71
2018-04-23T05:52:02.011Z,960.73
2018-04-23T05:53:01.996Z,960.74
2018-04-23T05:54:01.974Z,960.76
2018-04-23T05:55:01.998Z,960.74
2018-04-23T05:56:01.935Z,960.75
2018-04-23T05:57:01.918Z,960.76
2018-04-23T05:58:01.898Z,960.77
2018-04-23T05:59:01.880Z,960.79
2018-04-23T06:00:01.862Z,960.78
2018-04-23T06:01:01.843Z,960.81
2018-04-23T06:02:01.829Z,960.78
2018-04-23T06:03:01.853Z,960.80
2018-04-23T06:04:02.537Z,960.80
2018-04-23T06:05:01.772Z,960.80
2018-04-23T06:06:01.748Z,960.79
2018-04-23T06:07:01.730Z,960.77
2018-04-23T06:08:01.712Z,960.78
2018-04-23T06:09:01.693Z,960.78
2018-04-23T06:10:01.677Z,960.77
2018-04-23T06:11:01.657Z,960.75
2018-04-23T06:12:01.636Z,960.74
2018-04-23T06:13:01.619Z,960.75
2018-04-23T06:14:01.600Z,960.74
2018-04-23T06:15:01.585Z,960.74
2018-04-23T06:16:01.561Z,960.76
2018-04-23T06:17:01.544Z,960.76
2018-04-23T06:18:01.526Z,960.74
2018-04-23T06:19:01.508Z,960.72
2018-04-23T06:20:01.487Z,960.76
2018-04-23T06:21:01.470Z,960.74
2018-04-23T06:22:01.451Z,960.77
2018-04-23T06:23:01.435Z,960.74
2018-04-23T06:24:01.413Z,960.77
2018-04-23T06:25:02.150Z,960.74
2018-04-23T06:26:01.378Z,960.79
2018-04-23T06:27:01.359Z,960.80
2018-04-23T06:28:01.340Z,960.82
2018-04-23T06:29:01.322Z,960.82
2018-04-23T06:30:01.304Z,960.77
2018-04-23T06:31:01.285Z,960.84
2018-04-23T06:32:01.267Z,960.81
2018-04-23T06:33:01.247Z,960.84
2018-04-23T06:34:01.230Z,960.81
2018-04-23T06:35:01.213Z,960.83
2018-04-23T06:36:01.194Z,960.82
2018-04-23T06:37:01.176Z,960.83
2018-04-23T06:38:01.156Z,960.81
2018-04-23T06:39:01.138Z,960.78
2018-04-23T06:40:01.120Z,960.79
2018-04-23T06:41:01.101Z,960.82
2018-04-23T06:42:01.084Z,960.79
2018-04-23T06:43:01.065Z,960.79
2018-04-23T06:44:01.049Z,960.78
2018-04-23T06:45:01.029Z,960.81
2018-04-23T06:46:01.012Z,960.81
2018-04-23T06:47:01.745Z,960.85
2018-04-23T06:48:00.976Z,960.88
2018-04-23T06:49:00.957Z,960.89
2018-04-23T06:50:00.940Z,960.87
2018-04-23T06:51:00.922Z,960.89
2018-04-23T06:52:00.903Z,960.87
2018-04-23T06:53:00.887Z,960.87
2018-04-23T06:54:00.868Z,960.88
2018-04-23T06:55:00.850Z,960.88
2018-04-23T06:56:00.831Z,960.94
2018-04-23T06:57:00.819Z,960.93
2018-04-23T06:58:00.796Z,960.93
2018-04-23T06:59:00.831Z,960.94
2018-04-23T07:00:00.762Z,960.91
2018-04-23T07:01:00.744Z,960.93
2018-04-23T07:02:00.727Z,960.91
2018-04-23T07:03:00.709Z,960.88
2018-04-23T07:04:00.691Z,960.91
2018-04-23T07:05:00.743Z,960.91
2018-04-23T07:06:00.662Z,960.93
2018-04-23T07:07:00.639Z,960.92
2018-04-23T07:08:00.622Z,960.96
2018-04-23T07:09:01.355Z,960.97
2018-04-23T07:10:00.586Z,960.92
2018-04-23T07:11:00.570Z,960.95
2018-04-23T07:12:00.551Z,960.96
2018-04-23T07:13:00.534Z,960.96
2018-04-23T07:14:00.516Z,960.96
2018-04-23T07:15:00.500Z,960.93
2018-04-23T07:16:00.481Z,960.95
2018-04-23T07:17:00.465Z,960.94
2018-04-23T07:18:00.461Z,960.89
2018-04-23T07:19:00.430Z,960.91
2018-04-23T07:20:01.165Z,960.89
2018-04-23T07:21:00.398Z,960.89
2018-04-23T07:22:00.378Z,960.91
2018-04-23T07:23:00.360Z,960.93
2018-04-23T07:24:00.344Z,960.96
2018-04-23T07:25:00.326Z,960.95
2018-04-23T07:26:00.309Z,960.95
2018-04-23T07:27:00.292Z,960.92
2018-04-23T07:28:00.273Z,960.92
2018-04-23T07:29:00.259Z,960.91
2018-04-23T07:30:00.238Z,960.93
2018-04-23T07:31:00.222Z,960.95
2018-04-23T07:32:00.210Z,960.93
2018-04-23T07:33:00.189Z,960.94
2018-04-23T07:34:00.172Z,960.96
2018-04-23T07:35:00.154Z,960.94
2018-04-23T07:36:00.891Z,960.92
2018-04-23T07:37:00.123Z,960.93
2018-04-23T07:38:00.103Z,960.94
2018-04-23T07:39:00.087Z,960.95
2018-04-23T07:40:00.071Z,960.94
2018-04-23T07:41:00.051Z,960.94
2018-04-23T07:42:00.035Z,960.95
2018-04-23T07:43:00.020Z,960.97
2018-04-23T07:44:00.033Z,960.93
2018-04-23T07:44:59.984Z,960.96
2018-04-23T07:45:59.966Z,960.94
2018-04-23T07:46:59.962Z,960.95
2018-04-23T07:47:59.933Z,960.91
2018-04-23T07:48:59.916Z,960.97
2018-04-23T07:49:59.899Z,960.99
2018-04-23T07:50:59.883Z,960.94
2018-04-23T07:51:59.864Z,960.96
2018-04-23T07:52:59.852Z,960.92
2018-04-23T07:53:59.831Z,960.93
2018-04-23T07:54:59.815Z,960.97
2018-04-23T07:55:59.798Z,960.96
2018-04-23T07:56:59.781Z,961.03
2018-04-23T07:57:59.765Z,961.02
2018-04-23T07:58:59.748Z,961.01
2018-04-23T07:59:59.765Z,960.99
2018-04-23T08:00:59.713Z,961.03
2018-04-23T08:01:59.697Z,961.01
2018-04-23T08:02:59.681Z,961.02
2018-04-23T08:03:59.662Z,961.02
2018-04-23T08:04:59.647Z,961.01
2018-04-23T08:05:59.630Z,960.99
2018-04-23T08:06:59.613Z,960.96
2018-04-23T08:07:59.595Z,960.98
2018-04-23T08:08:59.580Z,960.99
2018-04-23T08:09:59.562Z,960.96
2018-04-23T08:10:59.546Z,960.96
2018-04-23T08:11:59.530Z,960.97
2018-04-23T08:12:59.514Z,960.98
2018-04-23T08:13:59.497Z,960.95
2018-04-23T08:14:59.480Z,960.98
2018-04-23T08:15:59.463Z,960.98
2018-04-23T08:16:59.447Z,961.00
2018-04-23T08:17:59.431Z,961.01
2018-04-23T08:19:01.667Z,960.99
2018-04-23T08:19:59.397Z,961.03
2018-04-23T08:20:59.381Z,961.04
2018-04-23T08:21:59.367Z,961.05
2018-04-23T08:22:59.349Z,961.05
2018-04-23T08:23:59.332Z,961.08
2018-04-23T08:24:59.316Z,961.08
2018-04-23T08:25:59.300Z,961.10
2018-04-23T08:26:59.287Z,961.10
2018-04-23T08:27:59.269Z,961.12
2018-04-23T08:28:59.254Z,961.09
2018-04-23T08:29:59.238Z,961.12
2018-04-23T08:30:59.222Z,961.11
2018-04-23T08:31:59.222Z,961.14
2018-04-23T08:32:59.189Z,961.12
2018-04-23T08:33:59.174Z,961.14
2018-04-23T08:34:59.157Z,961.12
2018-04-23T08:35:59.141Z,961.13
2018-04-23T08:36:59.124Z,961.11
2018-04-23T08:37:59.112Z,961.15
2018-04-23T08:38:59.094Z,961.11
2018-04-23T08:39:59.079Z,961.12
2018-04-23T08:41:04.319Z,961.15
2018-04-23T08:41:59.049Z,961.17
2018-04-23T08:42:59.033Z,961.16
2018-04-23T08:43:59.049Z,961.12
2018-04-23T08:44:59.002Z,961.13
2018-04-23T08:45:58.984Z,961.13
2018-04-23T08:46:59.721Z,961.12
2018-04-23T08:47:58.954Z,961.13
2018-04-23T08:48:59.004Z,961.14
2018-04-23T08:49:58.923Z,961.18
2018-04-23T08:50:58.910Z,961.16
2018-04-23T08:51:58.892Z,961.18
2018-04-23T08:52:58.877Z,961.16
2018-04-23T08:53:58.864Z,961.18
2018-04-23T08:54:58.848Z,961.23
2018-04-23T08:55:58.832Z,961.16
2018-04-23T08:56:58.816Z,961.17
2018-04-23T08:57:58.802Z,961.17
2018-04-23T08:58:58.787Z,961.19
2018-04-23T08:59:58.785Z,961.17
2018-04-23T09:00:58.757Z,961.21
2018-04-23T09:01:58.743Z,961.18
2018-04-23T09:02:58.729Z,961.18
2018-04-23T09:03:58.709Z,961.15
2018-04-23T09:04:58.694Z,961.15
2018-04-23T09:05:58.682Z,961.11
2018-04-23T09:06:58.664Z,961.10
2018-04-23T09:07:58.648Z,961.14
2018-04-23T09:08:58.633Z,961.11
2018-04-23T09:09:58.619Z,961.15
2018-04-23T09:10:58.605Z,961.13
2018-04-23T09:11:58.586Z,961.13
2018-04-23T09:12:58.571Z,961.13
2018-04-23T09:13:59.307Z,961.12
2018-04-23T09:14:58.543Z,961.15
2018-04-23T09:15:58.528Z,961.16
2018-04-23T09:16:58.511Z,961.14
2018-04-23T09:17:58.499Z,961.11
2018-04-23T09:18:58.480Z,961.15
2018-04-23T09:19:58.464Z,961.14
2018-04-23T09:20:58.450Z,961.12
2018-04-23T09:21:58.439Z,961.16
2018-04-23T09:22:58.420Z,961.14
2018-04-23T09:23:58.403Z,961.07
2018-04-23T09:24:58.388Z,961.09
2018-04-23T09:25:58.373Z,961.09
2018-04-23T09:26:58.357Z,961.09
2018-04-23T09:27:58.345Z,961.11
2018-04-23T09:28:58.327Z,961.10
2018-04-23T09:29:58.313Z,961.09
2018-04-23T09:30:58.299Z,961.13
2018-04-23T09:31:58.286Z,961.14
2018-04-23T09:32:58.266Z,961.14
2018-04-23T09:33:58.253Z,961.22
2018-04-23T09:34:58.237Z,961.20
2018-04-23T09:36:07.232Z,961.19
2018-04-23T09:36:58.211Z,961.25
2018-04-23T09:37:58.193Z,961.29
2018-04-23T09:38:58.215Z,961.28
2018-04-23T09:39:58.162Z,961.25
2018-04-23T09:40:58.148Z,961.28
2018-04-23T09:41:58.884Z,961.25
2018-04-23T09:42:58.120Z,961.29
2018-04-23T09:43:58.105Z,961.26
2018-04-23T09:44:58.092Z,961.27
2018-04-23T09:45:58.074Z,961.27
2018-04-23T09:46:58.061Z,961.29
2018-04-23T09:47:58.045Z,961.29
2018-04-23T09:48:58.032Z,961.30
2018-04-23T09:49:58.016Z,961.28
2018-04-23T09:50:58.002Z,961.20
2018-04-23T09:51:57.987Z,961.21
2018-04-23T09:52:57.974Z,961.21
2018-04-23T09:53:57.958Z,961.20
2018-04-23T09:54:57.946Z,961.21
2018-04-23T09:55:57.933Z,961.19
2018-04-23T09:56:57.918Z,961.17
2018-04-23T09:57:58.654Z,961.22
2018-04-23T09:58:57.890Z,961.18
2018-04-23T09:59:57.875Z,961.18
2018-04-23T10:00:57.862Z,961.19
2018-04-23T10:01:57.848Z,961.16
2018-04-23T10:02:57.835Z,961.11
2018-04-23T10:03:57.820Z,961.13
2018-04-23T10:04:57.805Z,961.14
2018-04-23T10:05:57.796Z,961.15
2018-04-23T10:06:57.779Z,961.12
2018-04-23T10:07:57.765Z,961.19
2018-04-23T10:08:57.753Z,961.18
2018-04-23T10:09:57.738Z,961.14
2018-04-23T10:10:57.725Z,961.16
2018-04-23T10:11:57.711Z,961.12
2018-04-23T10:12:57.697Z,961.11
2018-04-23T10:13:57.686Z,961.11
2018-04-23T10:14:57.672Z,961.09
2018-04-23T10:15:57.658Z,961.04
2018-04-23T10:16:57.645Z,961.10
2018-04-23T10:17:57.631Z,961.08
2018-04-23T10:18:57.617Z,961.07
2018-04-23T10:19:57.604Z,961.09
2018-04-23T10:20:57.594Z,961.07
2018-04-23T10:21:57.577Z,961.05
2018-04-23T10:22:57.565Z,961.10
2018-04-23T10:23:57.551Z,961.12
2018-04-23T10:24:57.537Z,961.14
2018-04-23T10:25:57.524Z,961.09
2018-04-23T10:26:57.511Z,961.13
2018-04-23T10:27:57.498Z,961.10
2018-04-23T10:28:57.489Z,961.11
2018-04-23T10:29:57.473Z,961.13
2018-04-23T10:30:57.459Z,961.08
2018-04-23T10:31:57.445Z,961.15
2018-04-23T10:32:57.439Z,961.11
2018-04-23T10:33:57.421Z,961.12
2018-04-23T10:34:57.407Z,961.10
2018-04-23T10:35:59.646Z,961.13
2018-04-23T10:36:57.381Z,961.15
2018-04-23T10:37:57.367Z,961.14
2018-04-23T10:38:57.379Z,961.13
2018-04-23T10:39:57.341Z,961.17
2018-04-23T10:40:57.328Z,961.14
2018-04-23T10:41:57.316Z,961.18
2018-04-23T10:42:57.302Z,961.24
2018-04-23T10:43:57.288Z,961.18
2018-04-23T10:44:57.276Z,961.20
2018-04-23T10:45:57.261Z,961.21
2018-04-23T10:46:57.248Z,961.21
2018-04-23T10:47:57.234Z,961.19
2018-04-23T10:48:57.221Z,961.12
2018-04-23T10:49:57.206Z,961.17
2018-04-23T10:50:57.206Z,961.14
2018-04-23T10:51:57.180Z,961.15
2018-04-23T10:52:57.166Z,961.15
2018-04-23T10:53:57.152Z,961.12
2018-04-23T10:54:57.140Z,961.11
2018-04-23T10:55:57.124Z,961.11
2018-04-23T10:56:57.115Z,961.11
2018-04-23T10:57:57.848Z,961.08
2018-04-23T10:58:57.083Z,961.08
2018-04-23T10:59:57.069Z,961.07
2018-04-23T11:00:57.054Z,961.09
2018-04-23T11:01:57.045Z,961.12
2018-04-23T11:02:57.027Z,961.06
2018-04-23T11:03:57.013Z,961.06
2018-04-23T11:04:56.999Z,961.00
2018-04-23T11:05:56.984Z,961.05
2018-04-23T11:06:56.971Z,961.08
2018-04-23T11:07:56.956Z,961.03
2018-04-23T11:08:58.442Z,961.03
2018-04-23T11:09:56.926Z,961.01
2018-04-23T11:10:56.912Z,961.01
2018-04-23T11:11:56.897Z,960.99
2018-04-23T11:12:56.883Z,961.02
2018-04-23T11:13:56.869Z,961.02
2018-04-23T11:14:56.854Z,961.02
2018-04-23T11:15:56.838Z,961.04
2018-04-23T11:16:56.826Z,960.99
2018-04-23T11:17:56.810Z,961.03
2018-04-23T11:18:56.796Z,961.01
2018-04-23T11:19:56.782Z,960.94
2018-04-23T11:20:56.767Z,960.99
2018-04-23T11:21:56.754Z,961.00
2018-04-23T11:22:56.740Z,960.98
2018-04-23T11:23:56.736Z,960.95
2018-04-23T11:24:56.710Z,961.02
2018-04-23T11:25:58.952Z,961.05
2018-04-23T11:26:56.683Z,960.98
2018-04-23T11:27:56.668Z,960.99
2018-04-23T11:28:56.657Z,960.98
2018-04-23T11:29:56.641Z,960.95
2018-04-23T11:30:56.624Z,960.98
2018-04-23T11:31:56.614Z,960.95
2018-04-23T11:32:56.600Z,960.96
2018-04-23T11:33:56.582Z,960.94
2018-04-23T11:34:56.568Z,960.92
2018-04-23T11:35:56.553Z,960.92
2018-04-23T11:36:56.538Z,960.96
2018-04-23T11:37:56.523Z,960.91
2018-04-23T11:38:56.511Z,960.87
2018-04-23T11:39:56.495Z,960.87
2018-04-23T11:40:56.480Z,960.88
2018-04-23T11:41:56.470Z,960.90
2018-04-23T11:42:56.452Z,960.88
2018-04-23T11:43:56.435Z,960.89
2018-04-23T11:44:56.422Z,960.86
2018-04-23T11:45:56.407Z,960.87
2018-04-23T11:46:56.396Z,960.87
2018-04-23T11:47:56.380Z,960.84
2018-04-23T11:48:56.364Z,960.95
2018-04-23T11:49:56.354Z,960.92
2018-04-23T11:50:56.366Z,960.98
2018-04-23T11:51:56.319Z,960.98
2018-04-23T11:52:56.305Z,961.04
2018-04-23T11:53:56.299Z,961.05
2018-04-23T11:54:56.277Z,961.05
2018-04-23T11:55:56.260Z,961.05
2018-04-23T11:56:56.247Z,961.07
2018-04-23T11:57:56.232Z,961.04
2018-04-23T11:58:56.224Z,961.05
2018-04-23T11:59:56.206Z,961.05
2018-04-23T12:00:56.190Z,961.08
2018-04-23T12:01:56.173Z,961.09
2018-04-23T12:02:56.159Z,961.06
2018-04-23T12:03:56.143Z,961.13
2018-04-23T12:04:56.135Z,961.03
2018-04-23T12:05:56.116Z,961.05
2018-04-23T12:06:56.101Z,961.09
2018-04-23T12:07:56.085Z,961.11
2018-04-23T12:08:56.072Z,961.11
2018-04-23T12:09:56.058Z,961.04
2018-04-23T12:10:56.045Z,961.10
2018-04-23T12:11:56.028Z,961.13
2018-04-23T12:12:56.015Z,961.11
2018-04-23T12:13:56.000Z,961.14
2018-04-23T12:14:55.985Z,961.16
2018-04-23T12:15:55.972Z,961.12
2018-04-23T12:16:55.959Z,961.15
2018-04-23T12:17:55.943Z,961.11
2018-04-23T12:18:55.930Z,961.15
2018-04-23T12:19:55.915Z,961.13
2018-04-23T12:20:55.903Z,961.16
2018-04-23T12:21:55.894Z,961.14
2018-04-23T12:22:55.873Z,961.13
2018-04-23T12:23:55.859Z,961.16
2018-04-23T12:24:55.844Z,961.12
2018-04-23T12:25:55.830Z,961.12
2018-04-23T12:26:55.817Z,961.11
2018-04-23T12:27:55.803Z,961.14